EVV Airport (Evansville Rgnl) Information

FAA: EVV - ICAO: KEVV

EVV Airport Location

State Indiana
County Vanderburgh
City Evansville
EVV Airport is 3 miles north of Evansville, IN.
Latitude 38-02-26.9000N
Longitude 087-31-42.6000W
Elevation 421ft

KEVV Airport METARs

METAR KEVV 071954Z 33007KT 5SM BR OVC006 10/08 A3026 RMK AO2 SLP249 T01000083 $
Altimeter 30.26"
Temperature 10.0°C (50.0°F)
Wind 330° at 7KT
Clouds overcast at 600ft
Visibility 5.0mi
Time observed: 2022-12-07T19:54:00Z

EVV Airport Details

Status Operational
Activation April 1940
Ownership Public
Usage Public
Chart ST LOUIS
ATC on-site Yes
Beacon schedule sunset-sunrise
Beacon color clear green

EVV Airport Contacts

Owner EVANSVLLE-VANDERBURG ARPT AUTH
Owner address 7801 BUSSING DR, EVANSVILLE, IN 47725-6799
Owner phone 812-421-4401
Manager DAVID PIXEY
Manager address 1211 CO RD 6 W, ELKHART, IN 46514
Manager phone 574-264-5217

EVV Airport (Evansville Rgnl) Radio Frequencies

EVV (Airport) Radio Frequencies

UNICOM 122.95
Common traffic advisory frequency (CTAF) 118.7